Time;durP1;ratioP1;P1;durP2;ratioP2;P2;SDS_P1;SDS_P2;PMS_P1;PMS_P2;Temp;Humidity;BMP_temperature;BMP_pressure;BME280_temperature;BME280_humidity;BME280_pressure;Samples;Min_cycle;Max_cycle;Signal;HPM_P1;HPM_P2
2021/05/26 05:01:00;;;;;;;2.43;0.70;;;11.40;98.00;;;;;;5727778;23;20316;-77
2021/05/26 05:03:27;;;;;;;4.88;0.95;;;11.40;97.90;;;;;;4995253;28;20330;-76
2021/05/26 05:05:53;;;;;;;3.85;0.80;;;11.40;98.10;;;;;;4995276;28;20057;-77
2021/05/26 05:08:20;;;;;;;3.22;1.00;;;11.40;98.30;;;;;;4995161;28;20073;-78
2021/05/26 05:10:46;;;;;;;2.72;0.73;;;11.40;98.10;;;;;;4995567;28;20086;-77
2021/05/26 05:13:13;;;;;;;2.78;0.80;;;11.40;98.10;;;;;;4995277;28;20488;-76
2021/05/26 05:15:40;;;;;;;3.60;0.80;;;11.40;98.10;;;;;;4995150;28;20081;-75
2021/05/26 05:18:08;;;;;;;4.57;0.73;;;11.40;98.20;;;;;;4995751;28;20054;-77
2021/05/26 05:20:35;;;;;;;2.05;0.68;;;11.50;98.10;;;;;;4995410;28;20578;-77
2021/05/26 05:23:02;;;;;;;3.17;0.70;;;11.50;98.10;;;;;;4995680;28;20046;-77
2021/05/26 05:25:28;;;;;;;2.10;0.75;;;11.50;98.20;;;;;;4995202;28;20046;-77
2021/05/26 05:27:55;;;;;;;3.53;0.70;;;11.50;98.30;;;;;;4995153;28;20133;-76
2021/05/26 05:30:23;;;;;;;1.77;0.70;;;11.60;98.40;;;;;;4994622;28;20479;-77
2021/05/26 05:32:50;;;;;;;3.63;1.17;;;11.60;98.30;;;;;;4994777;28;20519;-77
2021/05/26 05:35:18;;;;;;;4.18;1.15;;;11.60;98.40;;;;;;4994684;28;20049;-77
2021/05/26 05:37:44;;;;;;;2.63;1.13;;;11.60;98.60;;;;;;4995529;28;20085;-76
2021/05/26 05:40:13;;;;;;;2.15;0.70;;;11.60;98.50;;;;;;4997324;28;20078;-77
2021/05/26 05:42:40;;;;;;;2.40;0.68;;;11.60;98.70;;;;;;4994791;28;20093;-77
2021/05/26 05:45:08;;;;;;;2.55;0.70;;;11.70;98.60;;;;;;4995187;28;20089;-77
2021/05/26 05:47:35;;;;;;;2.55;0.57;;;11.70;98.60;;;;;;4995098;28;20092;-77
2021/05/26 05:50:01;;;;;;;2.67;0.50;;;11.70;98.70;;;;;;4994621;28;20051;-77
2021/05/26 05:52:29;;;;;;;2.65;0.70;;;11.80;99.00;;;;;;4994943;28;20476;-76
2021/05/26 05:54:55;;;;;;;2.38;0.60;;;11.80;98.70;;;;;;4994922;28;20200;-76
2021/05/26 05:57:22;;;;;;;3.20;0.70;;;11.80;98.70;;;;;;4994468;28;20128;-78
2021/05/26 05:59:49;;;;;;;2.45;0.80;;;11.80;98.70;;;;;;5023644;23;20081;-76
2021/05/26 06:02:15;;;;;;;2.70;0.80;;;11.90;98.80;;;;;;4994519;28;20093;-76
2021/05/26 06:04:42;;;;;;;2.53;0.70;;;11.90;98.70;;;;;;4994298;28;20586;-78
2021/05/26 06:07:08;;;;;;;3.45;1.10;;;11.90;98.70;;;;;;4994673;28;20077;-77
2021/05/26 06:09:36;;;;;;;4.25;1.10;;;11.90;98.60;;;;;;4994024;28;20129;-78
2021/05/26 06:12:04;;;;;;;2.60;0.82;;;11.90;98.20;;;;;;4994725;28;20085;-78
2021/05/26 06:14:30;;;;;;;3.65;0.80;;;11.90;98.30;;;;;;4994665;28;20470;-78
2021/05/26 06:16:57;;;;;;;1.98;0.70;;;11.90;98.30;;;;;;4993836;28;20133;-80
2021/05/26 06:19:23;;;;;;;2.58;0.82;;;11.90;98.50;;;;;;4994019;28;20084;-78
2021/05/26 06:21:50;;;;;;;3.17;0.82;;;11.90;98.60;;;;;;4994075;28;20464;-78
2021/05/26 06:24:16;;;;;;;2.72;0.90;;;12.00;98.80;;;;;;4994226;28;20043;-78
2021/05/26 06:26:44;;;;;;;1.85;0.77;;;12.10;98.70;;;;;;4993838;28;20077;-78
2021/05/26 06:29:10;;;;;;;4.80;0.88;;;12.10;98.70;;;;;;4993831;28;20138;-78
2021/05/26 06:31:37;;;;;;;3.08;0.80;;;12.20;98.80;;;;;;4994973;28;20455;-76
2021/05/26 06:34:04;;;;;;;3.60;0.90;;;12.20;98.70;;;;;;4994330;28;20078;-77
2021/05/26 06:36:33;;;;;;;3.22;0.80;;;12.20;98.70;;;;;;4994267;28;20081;-78
2021/05/26 06:39:00;;;;;;;3.72;0.80;;;12.30;98.70;;;;;;4994329;28;20043;-78
2021/05/26 06:41:26;;;;;;;2.45;0.63;;;12.30;98.40;;;;;;4976902;28;20477;-78
2021/05/26 06:43:54;;;;;;;2.42;0.85;;;12.30;98.50;;;;;;4993706;28;20046;-77
2021/05/26 06:46:21;;;;;;;2.92;1.05;;;12.30;98.60;;;;;;4994052;28;20105;-77
2021/05/26 06:48:47;;;;;;;2.13;0.80;;;12.40;98.80;;;;;;4994569;28;20074;-79
2021/05/26 06:51:14;;;;;;;2.88;0.60;;;12.30;98.70;;;;;;4994257;28;20159;-78
2021/05/26 06:53:41;;;;;;;4.30;1.00;;;12.30;99.00;;;;;;4994645;28;20133;-76
2021/05/26 06:56:08;;;;;;;4.35;1.00;;;12.20;99.20;;;;;;4993018;28;20480;-78
2021/05/26 06:58:34;;;;;;;3.85;1.00;;;12.20;99.40;;;;;;4993585;28;20129;-78
2021/05/26 07:01:02;;;;;;;3.15;1.20;;;12.10;99.60;;;;;;4976197;28;20133;-78
2021/05/26 07:03:29;;;;;;;2.97;1.00;;;12.10;99.80;;;;;;4993903;28;20448;-78
2021/05/26 07:05:55;;;;;;;3.53;1.17;;;12.10;99.90;;;;;;4993889;28;20133;-78
2021/05/26 07:08:22;;;;;;;2.78;0.90;;;12.10;99.90;;;;;;4994021;28;20407;-77
2021/05/26 07:10:48;;;;;;;3.63;1.10;;;12.20;99.90;;;;;;4993576;28;20077;-79
2021/05/26 07:13:15;;;;;;;3.63;1.17;;;12.20;99.90;;;;;;4993900;28;20074;-77
2021/05/26 07:15:42;;;;;;;3.58;1.20;;;12.30;99.90;;;;;;4993686;28;20085;-78
2021/05/26 07:18:09;;;;;;;2.70;1.00;;;12.30;99.90;;;;;;4993765;28;20133;-78
2021/05/26 07:20:39;;;;;;;3.25;1.10;;;12.30;99.90;;;;;;4993923;28;20439;-78
2021/05/26 07:23:06;;;;;;;4.18;1.05;;;12.40;99.90;;;;;;4997788;28;20392;-77
2021/05/26 07:25:33;;;;;;;4.05;1.25;;;12.50;99.90;;;;;;4997227;28;20074;-78
2021/05/26 07:27:59;;;;;;;3.47;1.17;;;12.50;99.90;;;;;;4997183;28;20082;-79
2021/05/26 07:30:26;;;;;;;3.13;1.02;;;12.60;99.90;;;;;;4997316;28;20082;-76
2021/05/26 07:32:53;;;;;;;3.53;1.00;;;12.60;99.90;;;;;;4997151;28;20404;-78
2021/05/26 07:35:20;;;;;;;2.83;1.00;;;12.60;99.90;;;;;;4997392;28;20503;-77
2021/05/26 07:37:48;;;;;;;5.35;1.20;;;12.70;99.90;;;;;;4997057;28;20126;-78
2021/05/26 07:40:16;;;;;;;3.28;1.00;;;12.70;99.80;;;;;;4997228;28;20440;-78
2021/05/26 07:42:43;;;;;;;5.82;1.30;;;12.70;99.90;;;;;;4997440;28;20089;-76
2021/05/26 07:45:11;;;;;;;3.55;1.10;;;12.80;99.90;;;;;;4997488;28;20078;-78
2021/05/26 07:47:38;;;;;;;4.22;1.08;;;12.80;99.80;;;;;;4997532;28;20137;-79
2021/05/26 07:50:07;;;;;;;4.70;1.30;;;12.90;99.80;;;;;;4996913;28;20078;-76
2021/05/26 07:52:34;;;;;;;4.15;1.30;;;12.90;99.50;;;;;;4996980;28;20487;-78
2021/05/26 07:55:01;;;;;;;5.40;1.40;;;12.90;99.50;;;;;;4997264;28;20085;-78
2021/05/26 07:57:27;;;;;;;3.97;1.10;;;13.00;99.60;;;;;;4997678;28;20093;-77
2021/05/26 07:59:54;;;;;;;6.22;1.70;;;13.00;99.20;;;;;;4996918;28;20058;-78
2021/05/26 08:02:21;;;;;;;3.90;1.40;;;13.00;99.30;;;;;;4996894;28;20085;-77
2021/05/26 08:04:48;;;;;;;5.43;1.63;;;13.00;99.40;;;;;;4996291;28;20054;-78
2021/05/26 08:07:15;;;;;;;5.75;1.60;;;12.90;99.10;;;;;;4997182;28;20101;-78
2021/05/26 08:09:42;;;;;;;5.88;1.60;;;12.90;98.30;;;;;;4996871;28;20093;-77
2021/05/26 08:12:09;;;;;;;4.68;1.70;;;12.80;98.80;;;;;;4996680;28;20054;-78
2021/05/26 08:14:37;;;;;;;9.00;2.00;;;12.70;98.70;;;;;;4996849;28;20146;-78
2021/05/26 08:17:04;;;;;;;5.97;1.60;;;12.70;99.00;;;;;;4996444;28;20554;-76
2021/05/26 08:19:30;;;;;;;4.72;1.80;;;12.60;99.00;;;;;;4998916;28;20105;-76
2021/05/26 08:21:57;;;;;;;4.63;1.50;;;12.60;99.00;;;;;;4996106;28;20168;-76
2021/05/26 08:24:24;;;;;;;6.53;2.00;;;12.60;98.80;;;;;;4996158;28;20081;-77
2021/05/26 08:26:52;;;;;;;7.35;1.80;;;12.50;98.90;;;;;;4996418;28;20089;-78
2021/05/26 08:29:20;;;;;;;7.90;1.90;;;12.50;99.10;;;;;;4996139;28;20082;-78
2021/05/26 08:31:47;;;;;;;6.65;2.05;;;12.50;98.50;;;;;;4995722;28;20042;-79
2021/05/26 08:34:13;;;;;;;5.05;1.73;;;12.50;98.50;;;;;;4995804;28;20137;-77
2021/05/26 08:36:40;;;;;;;8.02;1.77;;;12.50;98.90;;;;;;4996609;28;20547;-78
2021/05/26 08:39:07;;;;;;;5.45;1.70;;;12.50;98.90;;;;;;4996137;28;20082;-78
2021/05/26 08:41:34;;;;;;;5.45;1.83;;;12.50;98.60;;;;;;4996303;28;20085;-78
2021/05/26 08:44:01;;;;;;;7.32;1.70;;;12.50;98.50;;;;;;4996112;28;20100;-76
2021/05/26 08:46:29;;;;;;;5.85;1.80;;;12.50;98.80;;;;;;4996021;28;20093;-78
2021/05/26 08:49:01;;;;;;;6.43;1.85;;;12.50;99.10;;;;;;4995800;28;20085;-77
2021/05/26 08:51:28;;;;;;;5.93;1.85;;;12.40;99.20;;;;;;4995831;28;20476;-79
2021/05/26 08:53:55;;;;;;;8.27;2.65;;;12.40;99.50;;;;;;4995773;28;20078;-79
2021/05/26 08:56:22;;;;;;;8.70;2.30;;;12.40;98.80;;;;;;4996393;28;20137;-77
2021/05/26 08:58:48;;;;;;;7.72;2.00;;;12.40;98.50;;;;;;4995678;28;20089;-76
2021/05/26 09:01:16;;;;;;;7.18;2.25;;;12.30;98.60;;;;;;4995956;28;20144;-77
2021/05/26 09:03:43;;;;;;;7.53;2.40;;;12.20;98.20;;;;;;4996509;28;20046;-77
2021/05/26 09:06:13;;;;;;;7.50;1.90;;;12.20;98.00;;;;;;4995548;28;20085;-77
2021/05/26 09:08:49;;;;;;;7.78;2.15;;;12.10;98.10;;;;;;4992681;28;20109;-77
2021/05/26 09:11:18;;;;;;;5.75;1.58;;;12.10;97.30;;;;;;4993473;28;20129;-76
2021/05/26 09:13:45;;;;;;;7.47;1.90;;;12.00;98.10;;;;;;4993867;28;20058;-76
2021/05/26 09:16:32;;;;;;;6.80;1.90;;;12.00;98.20;;;;;;5007477;28;20050;-76
2021/05/26 09:19:00;;;;;;;6.90;2.13;;;12.00;98.40;;;;;;5010094;28;20100;-76
2021/05/26 09:21:38;;;;;;;5.40;1.65;;;12.00;98.20;;;;;;5009958;28;20050;-77
2021/05/26 09:24:27;;;;;;;5.20;1.58;;;12.00;98.40;;;;;;5007990;28;20397;-76
2021/05/26 09:26:57;;;;;;;7.55;1.73;;;12.00;98.80;;;;;;4994295;28;20480;-76
2021/05/26 09:29:27;;;;;;;6.05;1.73;;;12.00;98.80;;;;;;4995502;28;20081;-76
2021/05/26 09:32:13;;;;;;;9.52;1.95;;;12.10;99.10;;;;;;4995242;28;20084;-76
2021/05/26 09:34:42;;;;;;;8.45;1.88;;;12.20;99.00;;;;;;4992346;28;20511;-77
2021/05/26 09:37:14;;;;;;;7.03;1.90;;;12.20;99.00;;;;;;4992426;28;20133;-78
2021/05/26 09:39:53;;;;;;;4.60;1.63;;;12.30;99.10;;;;;;4992571;28;20495;-76
2021/05/26 09:42:31;;;;;;;6.70;1.70;;;12.40;98.90;;;;;;4992635;28;20077;-77
2021/05/26 09:45:12;;;;;;;8.60;3.03;;;12.40;98.90;;;;;;4992853;28;20141;-78
2021/05/26 09:47:42;;;;;;;6.10;2.40;;;12.50;99.20;;;;;;4992178;28;20109;-76
2021/05/26 09:50:34;;;;;;;7.05;2.10;;;12.50;99.30;;;;;;4992163;28;20160;-77
2021/05/26 09:53:08;;;;;;;7.20;2.17;;;12.60;98.10;;;;;;4992438;28;20065;-77
2021/05/26 09:55:37;;;;;;;3.30;1.50;;;12.60;98.30;;;;;;4991794;28;20133;-77
2021/05/26 09:58:05;;;;;;;5.18;1.30;;;12.50;97.10;;;;;;4975671;28;20110;-76
2021/05/26 10:00:33;;;;;;;5.78;1.30;;;12.40;97.80;;;;;;4991683;28;20141;-77
2021/05/26 10:03:01;;;;;;;3.42;1.10;;;12.40;97.50;;;;;;4992168;28;20058;-78
2021/05/26 10:05:28;;;;;;;6.03;1.40;;;12.30;97.10;;;;;;4994040;28;20101;-78
2021/05/26 10:07:57;;;;;;;6.00;1.30;;;12.30;97.70;;;;;;4991980;28;20538;-77
2021/05/26 10:10:27;;;;;;;4.65;1.42;;;12.30;97.50;;;;;;4991365;28;20086;-78
2021/05/26 10:12:57;;;;;;;4.15;1.30;;;12.20;97.30;;;;;;4978060;28;20046;-78
2021/05/26 10:15:26;;;;;;;4.15;1.20;;;12.20;97.30;;;;;;4994684;28;20054;-80
2021/05/26 10:17:55;;;;;;;6.00;1.50;;;12.20;97.50;;;;;;4977346;28;20093;-78
2021/05/26 10:20:25;;;;;;;4.57;1.20;;;12.10;97.80;;;;;;4994550;28;20077;-78
2021/05/26 10:22:54;;;;;;;3.33;1.45;;;12.10;98.30;;;;;;4994149;28;20096;-76
2021/05/26 10:25:22;;;;;;;3.53;1.20;;;12.20;97.60;;;;;;4992676;28;20050;-78
2021/05/26 10:27:51;;;;;;;4.38;1.33;;;12.10;97.80;;;;;;4994514;28;20500;-77
2021/05/26 10:30:20;;;;;;;4.72;1.52;;;12.20;98.30;;;;;;4994447;28;20085;-79
2021/05/26 10:32:56;;;;;;;3.88;1.35;;;12.20;98.50;;;;;;4994424;28;20050;-78
2021/05/26 10:35:25;;;;;;;5.45;1.63;;;12.20;98.00;;;;;;4994250;28;20050;-76
2021/05/26 10:38:03;;;;;;;4.32;1.10;;;12.20;98.20;;;;;;4994388;28;20140;-76
2021/05/26 10:40:44;;;;;;;3.95;1.30;;;12.20;98.30;;;;;;4993647;28;20057;-77
2021/05/26 10:43:28;;;;;;;4.75;1.25;;;12.20;98.60;;;;;;4993495;28;20514;-77
2021/05/26 10:46:01;;;;;;;4.40;1.30;;;12.20;98.80;;;;;;4994208;28;20054;-76
2021/05/26 10:49:10;;;;;;;3.25;1.10;;;12.30;98.40;;;;;;4994050;28;20527;-78
2021/05/26 10:52:02;;;;;;;5.40;1.30;;;12.30;98.30;;;;;;4993710;28;20416;-78
2021/05/26 10:55:06;;;;;;;3.97;1.10;;;12.30;98.30;;;;;;4994252;28;20054;-78
2021/05/26 10:58:13;;;;;;;6.07;1.27;;;12.40;98.80;;;;;;4997573;28;20087;-78
2021/05/26 11:00:41;;;;;;;4.18;1.13;;;12.40;98.80;;;;;;4997689;28;20065;-77
2021/05/26 11:03:34;;;;;;;3.15;1.10;;;12.50;98.60;;;;;;4998001;28;20093;-77
2021/05/26 11:06:03;;;;;;;4.30;1.20;;;12.60;98.50;;;;;;4998090;28;20112;-76
2021/05/26 11:08:42;;;;;;;3.45;1.20;;;12.70;98.40;;;;;;4998012;28;20051;-77
2021/05/26 11:11:47;;;;;;;4.18;1.20;;;12.70;98.40;;;;;;4998545;28;20061;-76
2021/05/26 11:14:34;;;;;;;3.75;1.10;;;12.70;98.20;;;;;;4997918;28;20046;-77
2021/05/26 11:17:23;;;;;;;4.15;1.20;;;12.80;98.40;;;;;;4980844;28;20058;-76
2021/05/26 11:19:51;;;;;;;2.92;1.10;;;12.80;98.20;;;;;;4997923;28;20137;-77
2021/05/26 11:22:24;;;;;;;4.55;1.40;;;12.90;98.30;;;;;;4997113;28;20082;-78
2021/05/26 11:24:52;;;;;;;4.03;1.20;;;12.90;97.40;;;;;;4997824;28;20089;-79
2021/05/26 11:27:22;;;;;;;4.50;1.30;;;12.90;97.90;;;;;;4980315;28;20046;-76
2021/05/26 11:29:50;;;;;;;3.97;1.20;;;13.00;97.70;;;;;;4997702;28;20117;-77
2021/05/26 11:32:20;;;;;;;3.92;1.00;;;12.90;97.30;;;;;;4997920;28;20129;-77
2021/05/26 11:34:49;;;;;;;4.10;0.90;;;12.90;97.20;;;;;;4997579;28;20090;-76
2021/05/26 11:37:27;;;;;;;2.92;0.82;;;12.90;97.30;;;;;;4997137;28;20129;-77
2021/05/26 11:39:55;;;;;;;3.47;1.10;;;12.90;97.10;;;;;;4997099;28;20101;-76
2021/05/26 11:42:26;;;;;;;3.03;0.98;;;13.00;97.30;;;;;;4996726;28;20082;-77
2021/05/26 11:45:00;;;;;;;2.33;0.80;;;13.00;97.10;;;;;;4997125;28;20058;-77
2021/05/26 11:47:32;;;;;;;4.15;1.00;;;13.00;96.90;;;;;;4997255;28;20054;-75
2021/05/26 11:49:59;;;;;;;3.75;1.00;;;13.00;96.80;;;;;;4997300;28;20128;-76
2021/05/26 11:52:27;;;;;;;2.50;0.88;;;13.00;97.30;;;;;;4997110;28;20073;-74
2021/05/26 11:54:57;;;;;;;3.05;0.90;;;13.00;97.00;;;;;;4996795;28;20519;-75
2021/05/26 11:57:34;;;;;;;3.38;0.98;;;13.10;96.60;;;;;;4996835;28;20073;-76
2021/05/26 12:00:01;;;;;;;3.17;0.70;;;13.10;96.60;;;;;;4997031;28;20092;-75
2021/05/26 12:02:29;;;;;;;4.72;1.48;;;13.10;97.00;;;;;;4997115;28;20057;-76
2021/05/26 12:04:56;;;;;;;3.53;0.90;;;13.10;96.90;;;;;;4997094;28;20051;-75
2021/05/26 12:07:24;;;;;;;3.47;1.00;;;13.10;96.90;;;;;;4996673;28;20125;-75
2021/05/26 12:09:56;;;;;;;3.92;1.10;;;13.10;96.90;;;;;;4996357;28;20153;-76
2021/05/26 12:12:24;;;;;;;2.30;0.75;;;13.10;96.80;;;;;;4996605;28;20129;-77
2021/05/26 12:14:51;;;;;;;2.13;0.70;;;13.20;96.90;;;;;;4996760;28;20052;-75
2021/05/26 12:17:20;;;;;;;3.45;0.90;;;13.20;97.10;;;;;;4996914;28;20062;-77
2021/05/26 12:19:47;;;;;;;4.40;1.05;;;13.30;96.20;;;;;;4996873;28;20073;-77
2021/05/26 12:22:17;;;;;;;2.80;0.80;;;13.30;96.40;;;;;;4996441;28;20108;-76
2021/05/26 12:24:55;;;;;;;2.50;0.90;;;13.30;95.90;;;;;;4996869;28;20133;-76
2021/05/26 12:27:42;;;;;;;2.03;0.70;;;13.30;95.80;;;;;;4996828;28;20047;-76
2021/05/26 12:30:30;;;;;;;3.80;0.90;;;13.30;95.50;;;;;;4996790;28;20061;-77
2021/05/26 12:33:12;;;;;;;2.38;0.80;;;13.30;95.60;;;;;;4990361;28;20491;-77
2021/05/26 12:35:39;;;;;;;1.98;0.70;;;13.40;95.40;;;;;;4996509;28;20534;-75
2021/05/26 12:38:20;;;;;;;2.10;0.80;;;13.40;95.30;;;;;;4996407;28;20129;-75
2021/05/26 12:40:49;;;;;;;1.83;0.70;;;13.50;95.10;;;;;;4996337;28;20104;-76
2021/05/26 12:43:30;;;;;;;2.28;0.80;;;13.50;95.10;;;;;;4995677;28;20138;-75
2021/05/26 12:45:57;;;;;;;2.58;0.75;;;13.60;95.40;;;;;;4995945;28;20053;-76
2021/05/26 12:48:30;;;;;;;3.28;0.80;;;13.70;95.30;;;;;;4996050;28;20061;-76
2021/05/26 12:51:00;;;;;;;2.35;0.70;;;13.70;94.90;;;;;;4995899;28;20092;-77
2021/05/26 12:53:32;;;;;;;2.50;0.80;;;13.70;95.00;;;;;;4979296;28;20047;-77
2021/05/26 12:56:00;;;;;;;3.03;0.73;;;13.80;94.80;;;;;;4996112;28;20086;-76
2021/05/26 12:58:27;;;;;;;3.50;0.90;;;13.80;94.80;;;;;;4995892;28;20129;-78
2021/05/26 13:01:07;;;;;;;1.88;0.80;;;13.90;94.80;;;;;;4995298;28;20097;-77
2021/05/26 13:03:36;;;;;;;1.58;0.63;;;13.90;94.60;;;;;;4995977;28;20141;-75
2021/05/26 13:06:14;;;;;;;1.92;0.75;;;13.90;94.50;;;;;;4995751;28;20107;-76
2021/05/26 13:08:56;;;;;;;2.55;0.80;;;13.90;94.60;;;;;;4995707;28;20046;-75
2021/05/26 13:11:40;;;;;;;2.33;0.77;;;14.00;94.50;;;;;;4995586;28;20097;-76
2021/05/26 13:14:07;;;;;;;2.35;0.75;;;14.10;94.60;;;;;;4995795;28;20042;-77
2021/05/26 13:16:33;;;;;;;1.58;0.60;;;14.10;94.20;;;;;;4995659;28;20132;-77
2021/05/26 13:19:00;;;;;;;2.20;0.80;;;14.10;94.30;;;;;;4994844;28;20086;-77
2021/05/26 13:21:27;;;;;;;2.20;0.70;;;14.20;94.20;;;;;;4995225;28;20085;-77
2021/05/26 13:23:53;;;;;;;3.70;0.95;;;14.20;94.10;;;;;;4995471;28;20058;-78
2021/05/26 13:26:20;;;;;;;2.97;0.70;;;14.20;94.30;;;;;;4995319;28;20418;-76
2021/05/26 13:28:48;;;;;;;1.55;0.57;;;14.30;93.60;;;;;;4995375;28;20050;-78
2021/05/26 13:31:14;;;;;;;2.13;0.65;;;14.30;93.80;;;;;;4978213;28;20061;-77
2021/05/26 13:33:41;;;;;;;1.42;0.60;;;14.20;93.70;;;;;;4995367;28;20137;-77
2021/05/26 13:36:08;;;;;;;2.53;0.70;;;14.30;93.90;;;;;;4995470;28;20416;-77
2021/05/26 13:38:35;;;;;;;2.90;0.85;;;14.30;93.50;;;;;;4995494;28;20054;-79
2021/05/26 13:41:03;;;;;;;2.55;0.80;;;14.20;93.80;;;;;;4995359;28;20088;-77
2021/05/26 13:43:30;;;;;;;2.65;0.75;;;14.20;93.20;;;;;;4994892;28;20061;-77
2021/05/26 13:45:58;;;;;;;1.73;0.60;;;14.20;93.00;;;;;;4994287;28;20046;-76
2021/05/26 13:48:26;;;;;;;1.92;0.60;;;14.20;92.70;;;;;;4994983;28;20065;-76
2021/05/26 13:50:52;;;;;;;1.98;0.70;;;14.10;92.70;;;;;;4994271;28;20140;-75
2021/05/26 13:53:19;;;;;;;1.88;0.60;;;14.10;92.70;;;;;;4994780;28;20114;-77
2021/05/26 13:55:46;;;;;;;3.58;0.68;;;14.10;92.80;;;;;;4994928;28;20046;-76
2021/05/26 13:58:13;;;;;;;2.08;0.68;;;14.10;93.10;;;;;;4994400;28;20046;-74
2021/05/26 14:00:42;;;;;;;1.85;0.70;;;14.10;93.20;;;;;;4993685;28;20078;-77
2021/05/26 14:03:12;;;;;;;2.35;0.50;;;14.20;93.60;;;;;;4994482;28;20054;-77
2021/05/26 14:05:39;;;;;;;2.47;0.70;;;14.20;93.40;;;;;;4993140;28;20129;-76
2021/05/26 14:08:06;;;;;;;1.67;0.60;;;14.20;93.70;;;;;;4982016;28;20073;-78
2021/05/26 14:10:33;;;;;;;2.83;0.73;;;14.30;93.80;;;;;;4994505;28;20050;-77
2021/05/26 14:13:01;;;;;;;2.30;0.75;;;14.30;93.80;;;;;;4992390;28;20077;-78
2021/05/26 14:15:31;;;;;;;2.80;0.70;;;14.30;93.80;;;;;;4983517;28;20046;-78
2021/05/26 14:18:01;;;;;;;1.95;0.70;;;14.30;94.20;;;;;;4994737;28;20050;-79
2021/05/26 14:20:30;;;;;;;1.65;0.70;;;14.30;94.30;;;;;;4981200;28;20154;-80
2021/05/26 14:22:59;;;;;;;2.13;0.68;;;14.40;94.70;;;;;;4994148;28;20141;-79
2021/05/26 14:25:26;;;;;;;1.67;0.70;;;14.50;94.50;;;;;;4994393;28;20065;-79
2021/05/26 14:27:54;;;;;;;2.10;0.80;;;14.50;94.30;;;;;;4994075;28;20058;-79
2021/05/26 14:30:22;;;;;;;2.20;0.60;;;14.50;94.50;;;;;;4993633;28;20047;-79
2021/05/26 14:32:49;;;;;;;3.05;1.15;;;14.40;94.40;;;;;;4994438;28;20113;-79
2021/05/26 14:35:18;;;;;;;2.05;0.70;;;14.40;93.90;;;;;;4994419;28;20050;-78
2021/05/26 14:37:48;;;;;;;2.53;0.80;;;14.40;93.80;;;;;;4994415;28;20050;-78
2021/05/26 14:40:17;;;;;;;1.63;0.60;;;14.40;93.80;;;;;;4994324;28;20066;-78
2021/05/26 14:42:44;;;;;;;2.20;0.80;;;14.40;93.90;;;;;;4993666;28;20089;-77
2021/05/26 14:45:13;;;;;;;2.22;0.80;;;14.40;93.70;;;;;;4994315;28;20093;-78
2021/05/26 14:47:40;;;;;;;1.35;0.60;;;14.50;93.70;;;;;;4993975;28;20050;-76
2021/05/26 14:50:08;;;;;;;1.88;0.77;;;14.50;93.80;;;;;;4994043;28;20076;-77
2021/05/26 14:52:35;;;;;;;2.10;0.73;;;14.70;93.60;;;;;;4993563;28;20047;-78
2021/05/26 14:55:02;;;;;;;5.38;2.00;;;14.70;93.40;;;;;;4992958;28;20093;-77
2021/05/26 14:57:29;;;;;;;7.75;3.17;;;14.80;93.40;;;;;;4992218;28;20070;-78
2021/05/26 14:59:56;;;;;;;3.20;1.30;;;14.80;93.30;;;;;;4992872;28;20081;-78
2021/05/26 15:02:24;;;;;;;2.78;0.82;;;14.90;93.00;;;;;;4992498;28;20061;-77
2021/05/26 15:04:54;;;;;;;2.47;0.70;;;14.90;92.90;;;;;;4992452;28;20051;-78
2021/05/26 15:07:20;;;;;;;1.98;0.60;;;14.90;93.00;;;;;;4992607;28;20465;-78
2021/05/26 15:09:47;;;;;;;1.50;0.60;;;14.80;92.90;;;;;;4992452;28;20050;-77
2021/05/26 15:12:15;;;;;;;2.30;0.80;;;14.80;93.00;;;;;;4991084;28;20101;-78
2021/05/26 15:14:42;;;;;;;1.67;0.60;;;14.80;93.10;;;;;;4992792;28;20046;-77
2021/05/26 15:17:08;;;;;;;1.77;0.65;;;14.70;93.20;;;;;;4992803;28;20471;-78
2021/05/26 15:19:35;;;;;;;1.85;0.70;;;14.70;93.00;;;;;;4993351;28;20078;-76
2021/05/26 15:22:02;;;;;;;1.95;0.70;;;14.60;92.90;;;;;;4993064;28;20056;-77
2021/05/26 15:24:28;;;;;;;1.75;0.68;;;14.50;93.00;;;;;;4992559;28;20050;-77
2021/05/26 15:26:55;;;;;;;2.90;0.82;;;14.50;93.20;;;;;;4993334;28;20495;-79
2021/05/26 15:29:23;;;;;;;4.47;0.80;;;14.40;93.40;;;;;;4991995;28;20093;-76
2021/05/26 15:31:49;;;;;;;1.70;0.63;;;14.40;93.00;;;;;;4992197;28;20085;-80
2021/05/26 15:34:16;;;;;;;7.40;3.60;;;14.40;93.50;;;;;;4990446;28;20069;-79
2021/05/26 15:36:43;;;;;;;2.67;0.90;;;14.30;93.60;;;;;;4991599;28;20569;-77
2021/05/26 15:39:10;;;;;;;2.15;1.00;;;14.30;93.30;;;;;;4991044;28;20400;-79
2021/05/26 15:41:40;;;;;;;1.58;0.65;;;14.20;93.40;;;;;;4991238;28;20046;-77
2021/05/26 15:44:08;;;;;;;1.50;0.65;;;14.10;93.30;;;;;;4994840;28;20050;-78
2021/05/26 15:46:36;;;;;;;2.38;0.70;;;14.00;93.50;;;;;;4994448;28;20138;-78
2021/05/26 15:49:03;;;;;;;1.67;0.60;;;14.00;93.70;;;;;;4994988;28;20137;-81
2021/05/26 15:51:29;;;;;;;2.17;0.80;;;13.90;94.00;;;;;;4994565;28;20149;-79
2021/05/26 15:53:56;;;;;;;1.92;0.85;;;13.90;94.20;;;;;;4990357;28;20090;-80
2021/05/26 15:56:23;;;;;;;1.98;0.80;;;13.90;94.30;;;;;;4995859;28;20415;-80
2021/05/26 15:58:50;;;;;;;2.08;0.70;;;13.90;94.50;;;;;;4997613;28;20046;-79
2021/05/26 16:01:16;;;;;;;2.20;0.90;;;13.90;94.80;;;;;;4997372;28;20089;-81
2021/05/26 16:03:44;;;;;;;2.03;0.82;;;13.90;95.10;;;;;;4997665;28;20112;-80
2021/05/26 16:06:11;;;;;;;1.42;0.60;;;13.90;95.10;;;;;;4997525;28;20050;-82
2021/05/26 16:08:37;;;;;;;3.22;0.80;;;13.90;95.00;;;;;;4997562;28;20065;-79
2021/05/26 16:11:05;;;;;;;3.50;0.98;;;13.90;95.00;;;;;;4997667;28;20066;-81
2021/05/26 16:13:33;;;;;;;1.58;0.70;;;13.80;95.10;;;;;;4997190;28;20059;-79
2021/05/26 16:16:00;;;;;;;3.42;0.90;;;13.80;95.00;;;;;;4997122;28;20122;-80
2021/05/26 16:18:27;;;;;;;2.00;0.63;;;13.70;95.00;;;;;;4997021;28;20050;-79
2021/05/26 16:20:55;;;;;;;1.73;0.70;;;13.70;94.80;;;;;;4997076;28;20046;-79
2021/05/26 16:23:22;;;;;;;3.08;0.80;;;13.60;94.60;;;;;;4997375;28;20405;-80
2021/05/26 16:25:49;;;;;;;2.58;0.70;;;13.60;94.10;;;;;;4996947;28;20500;-79
2021/05/26 16:28:16;;;;;;;2.47;0.77;;;13.60;93.70;;;;;;4996102;28;20073;-79
2021/05/26 16:30:43;;;;;;;1.52;0.57;;;13.60;93.50;;;;;;4996110;28;20137;-80
2021/05/26 16:33:10;;;;;;;1.52;0.70;;;13.60;93.20;;;;;;4996342;28;20085;-81
2021/05/26 16:35:37;;;;;;;1.50;0.60;;;13.50;93.30;;;;;;4995084;28;20060;-79
2021/05/26 16:38:05;;;;;;;2.00;0.80;;;13.60;93.20;;;;;;4999083;28;20381;-81
2021/05/26 16:40:32;;;;;;;1.33;0.55;;;13.50;93.10;;;;;;5004265;28;20080;-81
2021/05/26 16:42:59;;;;;;;1.33;0.47;;;13.50;93.20;;;;;;5002531;28;20484;-81
2021/05/26 16:45:27;;;;;;;1.70;0.70;;;13.50;93.20;;;;;;5004583;28;20054;-78
2021/05/26 16:47:54;;;;;;;1.27;0.60;;;13.50;93.50;;;;;;5008748;28;20045;-78
2021/05/26 16:50:21;;;;;;;1.95;0.70;;;13.50;93.00;;;;;;4998998;28;20070;-76
2021/05/26 16:52:49;;;;;;;1.48;0.47;;;13.50;93.20;;;;;;4995415;28;20062;-78
2021/05/26 16:55:20;;;;;;;2.63;0.50;;;13.50;93.40;;;;;;4994431;28;20489;-79
2021/05/26 16:57:46;;;;;;;2.35;0.77;;;13.50;93.60;;;;;;5001412;28;20137;-77
2021/05/26 17:00:18;;;;;;;2.70;0.73;;;13.60;93.40;;;;;;5003864;28;20579;-78
2021/05/26 17:02:45;;;;;;;1.98;0.60;;;13.60;93.50;;;;;;5006457;28;20148;-78
2021/05/26 17:05:13;;;;;;;2.42;0.90;;;13.60;93.50;;;;;;4982767;28;20357;-79
2021/05/26 17:07:39;;;;;;;1.77;0.68;;;13.50;93.60;;;;;;5007536;28;20050;-78
2021/05/26 17:10:08;;;;;;;2.47;1.08;;;13.40;93.70;;;;;;5002734;28;20106;-79
2021/05/26 17:12:38;;;;;;;3.38;0.82;;;13.40;93.80;;;;;;5006021;28;20129;-78
2021/05/26 17:15:08;;;;;;;1.75;0.70;;;13.30;94.00;;;;;;4995506;28;20495;-77
2021/05/26 17:17:35;;;;;;;2.20;0.80;;;13.30;94.30;;;;;;4995885;28;20046;-77
2021/05/26 17:20:03;;;;;;;3.20;0.90;;;13.30;94.50;;;;;;5002372;28;20483;-78
2021/05/26 17:22:30;;;;;;;16.30;8.02;;;13.20;95.00;;;;;;5005021;28;20050;-79
2021/05/26 17:24:56;;;;;;;7.72;3.78;;;13.10;95.10;;;;;;5002602;28;20062;-78
2021/05/26 17:27:24;;;;;;;2.70;0.90;;;13.10;95.40;;;;;;4998514;28;20042;-79
2021/05/26 17:29:54;;;;;;;2.20;0.98;;;13.10;95.50;;;;;;4994423;28;20157;-78
2021/05/26 17:32:21;;;;;;;2.00;0.80;;;13.10;95.60;;;;;;5003983;28;20046;-77
2021/05/26 17:34:48;;;;;;;2.40;0.80;;;13.10;95.60;;;;;;5002574;28;20097;-77
2021/05/26 17:37:15;;;;;;;2.13;0.90;;;13.00;95.90;;;;;;5008175;28;20078;-78
2021/05/26 17:39:42;;;;;;;3.33;1.00;;;13.10;96.30;;;;;;5007321;28;20081;-77
2021/05/26 17:42:09;;;;;;;3.63;0.95;;;13.00;96.30;;;;;;5003535;28;20129;-78
2021/05/26 17:44:36;;;;;;;3.97;0.80;;;13.00;96.50;;;;;;5005660;28;20048;-77
2021/05/26 17:47:05;;;;;;;2.13;0.80;;;13.00;96.60;;;;;;5005103;28;20104;-78
2021/05/26 17:49:32;;;;;;;2.63;0.90;;;13.00;97.10;;;;;;4992843;28;20559;-78
2021/05/26 17:52:01;;;;;;;2.45;0.90;;;13.00;97.00;;;;;;4989552;28;20038;-79
2021/05/26 17:54:29;;;;;;;3.53;1.02;;;12.90;97.10;;;;;;4982678;28;20096;-78
2021/05/26 17:56:56;;;;;;;2.50;0.77;;;12.90;97.20;;;;;;4992252;28;20054;-78
2021/05/26 17:59:25;;;;;;;2.63;0.80;;;12.80;97.40;;;;;;4991782;28;20053;-79